Hlavní strana
METAR-TAF:

METAR-TAF

Letiště :

Rock Hill/York County Airport (Bryant Field)

Rock Hill, Jižní Karolína, Spojené státy americké

zeměpisná šířka: 34-59-02N, zeměpisná délka: 081-03-21W, výška: 204 m

Aktuální stav počasí

Zpráva byla vytvořena před 30 minutami, v 17:54 UTC
Západoseverozápadní vítr 11 kt s nárazy do 16 kt, proměnlivý mezi západním a severozápadním
Teplota 8°C
Vlhkost vzduchu 25%
Tlak 1018 hPa
Viditelnost: 16.1 km
Jasno

METAR: KUZA 271754Z AUTO 30011G16KT 260V320 10SM CLR 08/M11 A3006 RMK AO2 SLP182 T00831106 10089 20017 50001

Čas: 13:24 (18:24 UTC)


TAF: chybějící

Stav a předpovědi počasí z více než 4 000 letišť (zprávy METAR a TAF).

Červené a žluté tečky na mapě představují dostupné meteorologické stanice.

Když kurzor umístíte na tečku, zobrazí se název stanice.

Pak kliknutím zobrazíte stav a předpověď počasí.

Chcete-li změnit mapu, kliknutím na zelené tlačítko se znaménkem +mapu přiblížíte, kliknutím na zelené tlačítko se znaménkem – mapu oddálíte a kliknutím na zelené šipky přejdete na sousední mapy.


METAR-TAF: